Time;durP1;ratioP1;P1;durP2;ratioP2;P2;SDS_P1;SDS_P2;PMS_P1;PMS_P2;Temp;Humidity;BMP_temperature;BMP_pressure;BME280_temperature;BME280_humidity;BME280_pressure;Samples;Min_cycle;Max_cycle;Signal;HPM_P1;HPM_P2
2024/03/30 00:00:10;;;;;;;;;;;21.40;44.20;;;;;;3031627;19;4665;-27
2024/03/30 00:01:11;;;;;;;;;;;21.40;44.20;;;;;;3050950;19;4603;-26
2024/03/30 00:02:12;;;;;;;;;;;21.40;44.20;;;;;;3051940;19;4754;-25
2024/03/30 00:03:12;;;;;;;;;;;21.40;44.20;;;;;;3028902;19;4595;-26
2024/03/30 00:04:13;;;;;;;;;;;21.40;44.20;;;;;;3051646;19;4753;-24
2024/03/30 00:05:13;;;;;;;;;;;21.40;44.20;;;;;;3031613;19;4662;-27
2024/03/30 00:06:14;;;;;;;;;;;21.30;44.20;;;;;;3052997;19;4763;-25
2024/03/30 00:07:15;;;;;;;;;;;21.40;44.30;;;;;;3051790;19;988;-26
2024/03/30 00:08:16;;;;;;;;;;;21.40;44.30;;;;;;3030848;19;4663;-27
2024/03/30 00:09:16;;;;;;;;;;;21.40;44.40;;;;;;3051059;19;4717;-26
2024/03/30 00:10:18;;;;;;;;;;;21.30;44.30;;;;;;3052626;19;4761;-25
2024/03/30 00:11:19;;;;;;;;;;;21.40;44.30;;;;;;3028654;19;4646;-28
2024/03/30 00:12:19;;;;;;;;;;;21.30;44.30;;;;;;3049840;19;4746;-28
2024/03/30 00:13:20;;;;;;;;;;;21.40;44.40;;;;;;3030037;19;4863;-25
2024/03/30 00:14:20;;;;;;;;;;;21.30;44.40;;;;;;3049852;19;4704;-27
2024/03/30 00:15:22;;;;;;;;;;;21.30;44.30;;;;;;3051846;19;4732;-25
2024/03/30 00:16:22;;;;;;;;;;;21.40;44.30;;;;;;3029909;19;4548;-26
2024/03/30 00:17:23;;;;;;;;;;;21.40;44.40;;;;;;3052233;19;4787;-25
2024/03/30 00:18:24;;;;;;;;;;;21.30;44.20;;;;;;3050637;19;4852;-24
2024/03/30 00:19:24;;;;;;;;;;;21.40;44.30;;;;;;3030739;19;4648;-26
2024/03/30 00:20:26;;;;;;;;;;;21.90;44.60;;;;;;3050445;19;4937;-27
2024/03/30 00:21:27;;;;;;;;;;;21.40;44.40;;;;;;3031246;19;4711;-28
2024/03/30 00:22:28;;;;;;;;;;;21.40;44.40;;;;;;3050162;19;4756;-28
2024/03/30 00:23:31;;;;;;;;;;;21.40;44.40;;;;;;3050621;19;4847;-25
2024/03/30 00:24:33;;;;;;;;;;;21.30;44.40;;;;;;3029151;19;4533;-28
2024/03/30 00:25:34;;;;;;;;;;;21.30;44.40;;;;;;3049092;19;4847;-26
2024/03/30 00:26:35;;;;;;;;;;;21.30;44.40;;;;;;3030894;19;4752;-28
2024/03/30 00:27:35;;;;;;;;;;;21.30;44.40;;;;;;3051415;19;4706;-25
2024/03/30 00:28:36;;;;;;;;;;;21.30;44.40;;;;;;3051353;19;4706;-24
2024/03/30 00:29:36;;;;;;;;;;;21.30;44.40;;;;;;3028923;19;4688;-24
2024/03/30 00:30:37;;;;;;;;;;;21.30;44.50;;;;;;3049294;19;4769;-27
2024/03/30 00:31:38;;;;;;;;;;;21.30;44.50;;;;;;3052717;19;4663;-26
2024/03/30 00:32:38;;;;;;;;;;;21.30;44.40;;;;;;3030139;19;4798;-24
2024/03/30 00:33:39;;;;;;;;;;;21.30;44.50;;;;;;3049540;19;4978;-24
2024/03/30 00:34:40;;;;;;;;;;;21.30;44.50;;;;;;3027035;19;4720;-26
2024/03/30 00:35:40;;;;;;;;;;;21.30;44.50;;;;;;3050370;19;4868;-26
2024/03/30 00:36:41;;;;;;;;;;;21.30;44.50;;;;;;3050922;19;4805;-24
2024/03/30 00:37:41;;;;;;;;;;;21.30;44.50;;;;;;3030048;19;4734;-27
2024/03/30 00:38:45;;;;;;;;;;;21.30;44.60;;;;;;3051665;19;4650;-25
2024/03/30 00:39:46;;;;;;;;;;;21.30;44.60;;;;;;3049725;19;4735;-24
2024/03/30 00:40:46;;;;;;;;;;;21.20;44.50;;;;;;3028908;19;4526;-25
2024/03/30 00:41:47;;;;;;;;;;;21.20;44.50;;;;;;3051582;19;4714;-27
2024/03/30 00:42:47;;;;;;;;;;;21.30;44.60;;;;;;3030439;19;4683;-27
2024/03/30 00:43:48;;;;;;;;;;;21.20;44.50;;;;;;3051292;19;4644;-27
2024/03/30 00:44:49;;;;;;;;;;;21.30;44.60;;;;;;3049813;19;4911;-25
2024/03/30 00:45:49;;;;;;;;;;;21.20;44.70;;;;;;3030082;19;4661;-27
2024/03/30 00:46:50;;;;;;;;;;;21.20;44.60;;;;;;3049541;19;4646;-26
2024/03/30 00:47:51;;;;;;;;;;;21.30;44.60;;;;;;3052729;19;4700;-26
2024/03/30 00:48:51;;;;;;;;;;;21.20;44.70;;;;;;3027739;19;4614;-27
2024/03/30 00:49:52;;;;;;;;;;;21.20;44.70;;;;;;3050668;19;4702;-26
2024/03/30 00:50:53;;;;;;;;;;;21.20;44.70;;;;;;3031047;19;4655;-27
2024/03/30 00:51:54;;;;;;;;;;;21.20;44.70;;;;;;3049219;19;4724;-27
2024/03/30 00:52:54;;;;;;;;;;;21.20;44.70;;;;;;3051957;19;4674;-25
2024/03/30 00:53:55;;;;;;;;;;;21.20;44.70;;;;;;3029918;19;4778;-24
2024/03/30 00:54:55;;;;;;;;;;;21.20;44.70;;;;;;3050469;19;4835;-25
2024/03/30 00:55:59;;;;;;;;;;;21.20;44.70;;;;;;3029006;19;4664;-25
2024/03/30 00:57:00;;;;;;;;;;;21.20;44.70;;;;;;3051373;19;4692;-27
2024/03/30 00:58:01;;;;;;;;;;;21.20;44.70;;;;;;3051161;19;4746;-25
2024/03/30 00:59:01;;;;;;;;;;;21.20;44.70;;;;;;3030263;19;4673;-25
2024/03/30 01:00:02;;;;;;;;;;;21.20;44.80;;;;;;3049708;19;4692;-25
2024/03/30 01:01:04;;;;;;;;;;;21.30;44.80;;;;;;3050834;19;4702;-27
2024/03/30 01:02:05;;;;;;;;;;;21.20;44.70;;;;;;3027509;19;4852;-25
2024/03/30 01:03:06;;;;;;;;;;;21.20;44.70;;;;;;3050178;19;4750;-26
2024/03/30 01:04:06;;;;;;;;;;;21.20;44.70;;;;;;3027613;19;4685;-28
2024/03/30 01:05:08;;;;;;;;;;;21.20;44.70;;;;;;3050753;19;4704;-26
2024/03/30 01:06:08;;;;;;;;;;;21.20;44.70;;;;;;3049411;19;4744;-28
2024/03/30 01:07:09;;;;;;;;;;;21.20;44.80;;;;;;3030258;19;4593;-24
2024/03/30 01:08:09;;;;;;;;;;;21.20;44.70;;;;;;3047557;19;4729;-26
2024/03/30 01:09:10;;;;;;;;;;;21.20;44.80;;;;;;3049706;19;4744;-29
2024/03/30 01:10:11;;;;;;;;;;;21.10;44.80;;;;;;3028867;19;4640;-24
2024/03/30 01:11:13;;;;;;;;;;;21.10;45.40;;;;;;3051272;19;1369;-25
2024/03/30 01:12:13;;;;;;;;;;;21.20;44.80;;;;;;3029221;19;4655;-25
2024/03/30 01:13:14;;;;;;;;;;;21.20;44.90;;;;;;3050134;19;4780;-25
2024/03/30 01:14:17;;;;;;;;;;;21.10;44.80;;;;;;3049833;19;4738;-27
2024/03/30 01:15:19;;;;;;;;;;;21.10;44.70;;;;;;3028552;19;4615;-28
2024/03/30 01:16:20;;;;;;;;;;;21.10;44.80;;;;;;3051004;19;4783;-26
2024/03/30 01:17:20;;;;;;;;;;;21.10;44.90;;;;;;3028236;19;4722;-29
2024/03/30 01:18:21;;;;;;;;;;;21.10;44.90;;;;;;3050660;19;4830;-25
2024/03/30 01:19:22;;;;;;;;;;;21.10;44.90;;;;;;3049917;19;4739;-28
2024/03/30 01:20:23;;;;;;;;;;;21.10;44.90;;;;;;3029150;19;4552;-26
2024/03/30 01:21:24;;;;;;;;;;;21.10;44.90;;;;;;3051004;19;4700;-26
2024/03/30 01:22:25;;;;;;;;;;;21.10;44.90;;;;;;3051716;19;4738;-25
2024/03/30 01:23:26;;;;;;;;;;;21.10;44.90;;;;;;3027992;19;4614;-29
2024/03/30 01:24:26;;;;;;;;;;;21.10;44.90;;;;;;3050873;19;4844;-25
2024/03/30 01:25:27;;;;;;;;;;;21.10;44.80;;;;;;3028715;19;5255;-25
2024/03/30 01:26:28;;;;;;;;;;;21.10;44.80;;;;;;3049270;19;4805;-29
2024/03/30 01:27:29;;;;;;;;;;;21.10;44.80;;;;;;3049588;19;4872;-26
2024/03/30 01:28:30;;;;;;;;;;;21.00;44.80;;;;;;3027621;19;4605;-25
2024/03/30 01:29:31;;;;;;;;;;;21.10;44.80;;;;;;3049376;19;4727;-25
2024/03/30 01:30:32;;;;;;;;;;;21.10;44.90;;;;;;3050967;19;4722;-27
2024/03/30 01:31:32;;;;;;;;;;;21.10;44.90;;;;;;3027923;19;14740;-26
2024/03/30 01:32:33;;;;;;;;;;;21.10;44.90;;;;;;3051284;19;4878;-25
2024/03/30 01:33:34;;;;;;;;;;;21.10;44.90;;;;;;3027891;19;4896;-27
2024/03/30 01:34:35;;;;;;;;;;;21.10;44.80;;;;;;3051007;19;4699;-25
2024/03/30 01:35:35;;;;;;;;;;;21.10;44.80;;;;;;3051033;19;4802;-27
2024/03/30 01:36:36;;;;;;;;;;;21.10;45.00;;;;;;3030032;19;4600;-26
2024/03/30 01:37:37;;;;;;;;;;;21.10;45.00;;;;;;3050599;19;4735;-27
2024/03/30 01:38:37;;;;;;;;;;;21.10;44.80;;;;;;3029170;19;4684;-27
2024/03/30 01:39:38;;;;;;;;;;;21.10;44.90;;;;;;3049051;19;4777;-25
2024/03/30 01:40:38;;;;;;;;;;;21.10;44.90;;;;;;3049820;19;4669;-25
2024/03/30 01:41:39;;;;;;;;;;;21.10;44.80;;;;;;3028202;19;4727;-26
2024/03/30 01:42:40;;;;;;;;;;;21.10;44.90;;;;;;3050621;19;4720;-24
2024/03/30 01:43:41;;;;;;;;;;;21.10;44.80;;;;;;3049736;19;4715;-26
2024/03/30 01:44:41;;;;;;;;;;;21.10;44.90;;;;;;3028952;19;4703;-25
2024/03/30 01:45:42;;;;;;;;;;;21.10;44.90;;;;;;3049609;19;4761;-25
2024/03/30 01:46:43;;;;;;;;;;;21.10;44.90;;;;;;3029204;19;4682;-28
2024/03/30 01:47:44;;;;;;;;;;;21.10;44.90;;;;;;3050392;19;4742;-28
2024/03/30 01:48:44;;;;;;;;;;;21.00;44.80;;;;;;3048749;19;4749;-30
2024/03/30 01:49:45;;;;;;;;;;;21.10;44.90;;;;;;3029384;19;4711;-25
2024/03/30 01:50:46;;;;;;;;;;;21.10;44.90;;;;;;3049708;19;4770;-24
2024/03/30 01:51:47;;;;;;;;;;;21.00;44.80;;;;;;3052517;19;4683;-27
2024/03/30 01:52:48;;;;;;;;;;;21.00;44.80;;;;;;3031668;19;4652;-26
2024/03/30 01:53:48;;;;;;;;;;;21.10;44.90;;;;;;3054349;19;4773;-26
2024/03/30 01:54:49;;;;;;;;;;;21.00;44.90;;;;;;3030081;19;4722;-25
2024/03/30 01:55:51;;;;;;;;;;;21.00;44.80;;;;;;3052072;19;4658;-26
2024/03/30 01:56:52;;;;;;;;;;;21.00;44.80;;;;;;3052896;19;4873;-24
2024/03/30 01:57:52;;;;;;;;;;;21.00;44.90;;;;;;3032844;19;4648;-27
2024/03/30 01:58:53;;;;;;;;;;;21.00;44.90;;;;;;3052495;19;4916;-25
2024/03/30 01:59:54;;;;;;;;;;;21.00;44.90;;;;;;3030752;19;4652;-26
2024/03/30 02:00:55;;;;;;;;;;;21.00;44.80;;;;;;3051128;19;4845;-24
2024/03/30 02:01:55;;;;;;;;;;;21.00;44.90;;;;;;3053120;19;4780;-28
2024/03/30 02:02:56;;;;;;;;;;;21.00;44.90;;;;;;3030327;19;4749;-25
2024/03/30 02:03:57;;;;;;;;;;;21.00;44.90;;;;;;3052673;19;4695;-33
2024/03/30 02:04:58;;;;;;;;;;;21.00;44.90;;;;;;3054027;19;4731;-33
2024/03/30 02:05:59;;;;;;;;;;;21.00;44.90;;;;;;3030734;19;4724;-34
2024/03/30 02:06:59;;;;;;;;;;;21.00;44.90;;;;;;3052611;19;4704;-34
2024/03/30 02:08:02;;;;;;;;;;;21.00;44.90;;;;;;3031971;19;4799;-31
2024/03/30 02:09:03;;;;;;;;;;;21.00;45.50;;;;;;3052264;19;4766;-31
2024/03/30 02:10:04;;;;;;;;;;;20.90;45.50;;;;;;3052439;19;4770;-32
2024/03/30 02:11:04;;;;;;;;;;;21.00;44.90;;;;;;3030496;19;4726;-32
2024/03/30 02:12:05;;;;;;;;;;;20.90;44.80;;;;;;3053103;19;4605;-31
2024/03/30 02:13:06;;;;;;;;;;;20.90;44.80;;;;;;3051584;19;14076;-34
2024/03/30 02:14:07;;;;;;;;;;;21.00;44.80;;;;;;3031206;19;4598;-34
2024/03/30 02:15:08;;;;;;;;;;;21.00;44.80;;;;;;3050050;19;5086;-35
2024/03/30 02:16:09;;;;;;;;;;;21.00;44.90;;;;;;3032367;19;4596;-31
2024/03/30 02:17:09;;;;;;;;;;;21.00;44.80;;;;;;3051740;19;4705;-32
2024/03/30 02:18:10;;;;;;;;;;;21.00;44.80;;;;;;3053689;19;1102;-31
2024/03/30 02:19:10;;;;;;;;;;;21.00;44.80;;;;;;3030213;19;4800;-36
2024/03/30 02:20:11;;;;;;;;;;;21.00;44.70;;;;;;3053255;19;4732;-34
2024/03/30 02:21:12;;;;;;;;;;;21.00;44.80;;;;;;3051592;19;4736;-28
2024/03/30 02:22:18;;;;;;;;;;;21.00;44.80;;;;;;3039482;19;4678;-30
2024/03/30 02:23:19;;;;;;;;;;;21.00;44.70;;;;;;3052200;19;4725;-33
2024/03/30 02:24:19;;;;;;;;;;;21.00;44.80;;;;;;3032540;19;4572;-34
2024/03/30 02:25:20;;;;;;;;;;;20.90;44.70;;;;;;3052970;19;4806;-33
2024/03/30 02:26:21;;;;;;;;;;;20.90;44.80;;;;;;3054375;19;4719;-31
2024/03/30 02:27:21;;;;;;;;;;;20.90;44.80;;;;;;3029712;19;4698;-32
2024/03/30 02:28:22;;;;;;;;;;;20.90;44.80;;;;;;3052367;19;4729;-30
2024/03/30 02:29:23;;;;;;;;;;;20.90;44.80;;;;;;3031191;19;4855;-32
2024/03/30 02:30:26;;;;;;;;;;;20.90;44.70;;;;;;3052769;19;4715;-32
2024/03/30 02:31:27;;;;;;;;;;;21.70;45.20;;;;;;3053343;19;4698;-32
2024/03/30 02:32:28;;;;;;;;;;;20.90;44.70;;;;;;3032158;19;4654;-33
2024/03/30 02:33:28;;;;;;;;;;;20.90;44.70;;;;;;3052540;19;4812;-30
2024/03/30 02:34:29;;;;;;;;;;;20.90;44.80;;;;;;3052531;19;4747;-34
2024/03/30 02:35:29;;;;;;;;;;;20.90;44.80;;;;;;3031049;19;4592;-34
2024/03/30 02:36:31;;;;;;;;;;;20.90;44.80;;;;;;3053558;19;4761;-33
2024/03/30 02:37:32;;;;;;;;;;;20.90;44.80;;;;;;3030054;19;4688;-31
2024/03/30 02:38:32;;;;;;;;;;;20.90;44.80;;;;;;3052380;19;4794;-35
2024/03/30 02:39:33;;;;;;;;;;;20.90;45.20;;;;;;3051710;19;4701;-35
2024/03/30 02:40:34;;;;;;;;;;;20.90;45.50;;;;;;3031331;19;4491;-31
2024/03/30 02:41:34;;;;;;;;;;;20.90;44.80;;;;;;3052360;19;4714;-34
2024/03/30 02:42:35;;;;;;;;;;;20.90;44.80;;;;;;3032307;19;4678;-34
2024/03/30 02:43:36;;;;;;;;;;;20.90;44.80;;;;;;3052934;19;4680;-34
2024/03/30 02:44:36;;;;;;;;;;;20.90;44.90;;;;;;3053361;19;4742;-34
2024/03/30 02:45:38;;;;;;;;;;;20.80;45.00;;;;;;3030784;19;4719;-33
2024/03/30 02:46:39;;;;;;;;;;;20.80;44.80;;;;;;3053865;19;4626;-32
2024/03/30 02:47:40;;;;;;;;;;;20.90;44.80;;;;;;3051454;19;4722;-32
2024/03/30 02:48:42;;;;;;;;;;;20.80;44.80;;;;;;3031395;19;4524;-34
2024/03/30 02:49:43;;;;;;;;;;;20.90;44.80;;;;;;3053062;19;4673;-35
2024/03/30 02:50:45;;;;;;;;;;;20.80;44.80;;;;;;3031018;19;4682;-32
2024/03/30 02:51:47;;;;;;;;;;;20.80;44.80;;;;;;3052998;19;4766;-32
2024/03/30 02:52:48;;;;;;;;;;;20.80;44.80;;;;;;3051944;19;5207;-35
2024/03/30 02:53:49;;;;;;;;;;;20.80;44.80;;;;;;3031536;19;4664;-31
2024/03/30 02:54:49;;;;;;;;;;;20.80;44.80;;;;;;3051985;19;4698;-32
2024/03/30 02:55:50;;;;;;;;;;;20.80;44.80;;;;;;3051729;19;5294;-33
2024/03/30 02:56:51;;;;;;;;;;;20.80;44.80;;;;;;3030524;19;4576;-35
2024/03/30 02:57:51;;;;;;;;;;;20.80;44.80;;;;;;3053200;19;4657;-33
2024/03/30 02:58:52;;;;;;;;;;;20.80;45.50;;;;;;3029638;19;4686;-32
2024/03/30 02:59:52;;;;;;;;;;;20.80;44.80;;;;;;3052398;19;4715;-32
2024/03/30 03:00:53;;;;;;;;;;;20.80;44.80;;;;;;3049865;19;4730;-32
2024/03/30 03:01:54;;;;;;;;;;;20.80;44.80;;;;;;3030620;19;4813;-31
2024/03/30 03:02:55;;;;;;;;;;;20.80;44.80;;;;;;3050079;19;4653;-34
2024/03/30 03:03:56;;;;;;;;;;;20.80;44.80;;;;;;3030547;19;4723;-31
2024/03/30 03:04:56;;;;;;;;;;;20.80;44.80;;;;;;3051226;19;4721;-34
2024/03/30 03:05:57;;;;;;;;;;;20.80;44.80;;;;;;3053243;19;4656;-31
2024/03/30 03:06:57;;;;;;;;;;;20.80;44.80;;;;;;3030240;19;4793;-33
2024/03/30 03:07:58;;;;;;;;;;;20.80;44.80;;;;;;3052322;19;4881;-33
2024/03/30 03:08:59;;;;;;;;;;;20.70;44.80;;;;;;3049669;19;4986;-33
2024/03/30 03:09:59;;;;;;;;;;;20.80;44.80;;;;;;3029535;19;4699;-30
2024/03/30 03:11:00;;;;;;;;;;;20.80;44.90;;;;;;3049796;19;4672;-32
2024/03/30 03:12:01;;;;;;;;;;;20.70;44.80;;;;;;3030777;19;4816;-32
2024/03/30 03:13:02;;;;;;;;;;;20.80;44.90;;;;;;3052967;19;4701;-32
2024/03/30 03:14:03;;;;;;;;;;;20.70;44.80;;;;;;3049925;19;4616;-34
2024/03/30 03:15:04;;;;;;;;;;;20.70;44.90;;;;;;3031365;19;4713;-32
2024/03/30 03:16:05;;;;;;;;;;;20.70;44.80;;;;;;3050411;19;4633;-32
2024/03/30 03:17:06;;;;;;;;;;;20.70;44.90;;;;;;3051733;19;4647;-32
2024/03/30 03:18:07;;;;;;;;;;;20.70;44.80;;;;;;3030653;19;4650;-31
2024/03/30 03:19:07;;;;;;;;;;;20.70;44.90;;;;;;3050550;19;4714;-31
2024/03/30 03:20:08;;;;;;;;;;;20.70;44.80;;;;;;3029257;19;4776;-31
2024/03/30 03:21:09;;;;;;;;;;;20.70;44.80;;;;;;3048571;19;4751;-30
2024/03/30 03:22:10;;;;;;;;;;;20.70;44.80;;;;;;3052560;19;1163;-31
2024/03/30 03:23:10;;;;;;;;;;;20.70;44.90;;;;;;3028971;19;4696;-32
2024/03/30 03:24:11;;;;;;;;;;;20.70;44.90;;;;;;3051331;19;4755;-30
2024/03/30 03:25:11;;;;;;;;;;;20.70;44.80;;;;;;3052112;19;4814;-31
2024/03/30 03:26:12;;;;;;;;;;;20.70;44.90;;;;;;3029730;19;20913;-31
2024/03/30 03:27:13;;;;;;;;;;;20.70;44.90;;;;;;3051627;19;4770;-32
2024/03/30 03:28:13;;;;;;;;;;;20.70;44.80;;;;;;3030874;19;4685;-33
2024/03/30 03:29:14;;;;;;;;;;;20.70;45.50;;;;;;3051232;19;4711;-31
2024/03/30 03:30:15;;;;;;;;;;;20.70;44.80;;;;;;3052678;19;1127;-35
2024/03/30 03:31:15;;;;;;;;;;;20.70;44.90;;;;;;3029088;19;4670;-34
2024/03/30 03:32:16;;;;;;;;;;;20.70;44.90;;;;;;3052141;19;4664;-35
2024/03/30 03:33:16;;;;;;;;;;;20.70;45.60;;;;;;3031352;19;4862;-32
2024/03/30 03:34:19;;;;;;;;;;;20.70;44.90;;;;;;3051623;19;4748;-32
2024/03/30 03:35:20;;;;;;;;;;;20.70;44.90;;;;;;3050656;19;4877;-33
2024/03/30 03:36:20;;;;;;;;;;;20.60;44.80;;;;;;3031016;19;4756;-30
2024/03/30 03:37:21;;;;;;;;;;;20.60;44.90;;;;;;3052547;19;4909;-30
2024/03/30 03:38:22;;;;;;;;;;;20.70;44.90;;;;;;3052649;19;4851;-33
2024/03/30 03:39:23;;;;;;;;;;;20.70;44.90;;;;;;3031036;19;4575;-34
2024/03/30 03:40:24;;;;;;;;;;;20.70;44.90;;;;;;3051053;19;4653;-31
2024/03/30 03:41:24;;;;;;;;;;;20.70;44.90;;;;;;3029867;19;4795;-31
2024/03/30 03:42:25;;;;;;;;;;;20.60;44.90;;;;;;3051148;19;4720;-34
2024/03/30 03:43:25;;;;;;;;;;;20.60;44.90;;;;;;3052823;19;4721;-31
2024/03/30 03:44:26;;;;;;;;;;;20.70;44.90;;;;;;3030777;19;4563;-33
2024/03/30 03:45:27;;;;;;;;;;;20.70;44.80;;;;;;3052417;19;4691;-32
2024/03/30 03:46:27;;;;;;;;;;;20.60;44.80;;;;;;3052131;19;4659;-32
2024/03/30 03:47:28;;;;;;;;;;;20.70;44.90;;;;;;3030937;19;4563;-34
2024/03/30 03:48:29;;;;;;;;;;;20.70;44.90;;;;;;3052386;19;4767;-32
2024/03/30 03:49:29;;;;;;;;;;;20.80;45.00;;;;;;3031718;19;4746;-34
2024/03/30 03:50:30;;;;;;;;;;;20.80;44.80;;;;;;3051090;19;4669;-31
2024/03/30 03:51:30;;;;;;;;;;;20.90;44.70;;;;;;3052751;19;4897;-32
2024/03/30 03:52:31;;;;;;;;;;;20.90;44.60;;;;;;3028428;19;4530;-34
2024/03/30 03:53:32;;;;;;;;;;;21.00;44.50;;;;;;3051685;19;4841;-30
2024/03/30 03:54:32;;;;;;;;;;;21.00;44.40;;;;;;3042340;19;4722;-31
2024/03/30 03:55:33;;;;;;;;;;;21.00;44.30;;;;;;3045662;19;4687;-32
2024/03/30 03:56:34;;;;;;;;;;;21.10;44.30;;;;;;3052014;19;4712;-32
2024/03/30 03:57:34;;;;;;;;;;;21.00;44.20;;;;;;3029829;19;4710;-32
2024/03/30 03:58:35;;;;;;;;;;;21.10;44.20;;;;;;3049036;19;4723;-33
2024/03/30 03:59:36;;;;;;;;;;;21.10;44.20;;;;;;3051788;19;4741;-34
2024/03/30 04:00:36;;;;;;;;;;;21.00;44.10;;;;;;3027764;19;4604;-31
2024/03/30 04:01:37;;;;;;;;;;;21.10;44.20;;;;;;3051835;19;4890;-30
2024/03/30 04:02:38;;;;;;;;;;;21.10;44.10;;;;;;3031175;19;4682;-33
2024/03/30 04:03:38;;;;;;;;;;;21.10;44.10;;;;;;3052306;19;4706;-33
2024/03/30 04:04:39;;;;;;;;;;;21.20;44.10;;;;;;3049972;19;4767;-34
2024/03/30 04:05:40;;;;;;;;;;;21.20;43.90;;;;;;3030031;19;4889;-30
2024/03/30 04:06:40;;;;;;;;;;;21.20;43.80;;;;;;3050336;19;4833;-33
2024/03/30 04:07:41;;;;;;;;;;;21.40;43.80;;;;;;3052635;19;4726;-33
2024/03/30 04:08:41;;;;;;;;;;;21.30;43.70;;;;;;3030158;19;4613;-33
2024/03/30 04:09:42;;;;;;;;;;;21.20;43.60;;;;;;3050219;19;4674;-32
2024/03/30 04:10:43;;;;;;;;;;;21.30;43.60;;;;;;3029346;19;5041;-31
2024/03/30 04:11:43;;;;;;;;;;;21.30;43.60;;;;;;3051823;19;4746;-32
2024/03/30 04:12:44;;;;;;;;;;;21.30;43.60;;;;;;3052748;19;4618;-35
2024/03/30 04:13:45;;;;;;;;;;;21.30;43.50;;;;;;3028683;19;4808;-31
2024/03/30 04:14:46;;;;;;;;;;;21.30;43.50;;;;;;3051581;19;4665;-24
2024/03/30 04:15:47;;;;;;;;;;;21.30;43.60;;;;;;3051364;19;4861;-26
2024/03/30 04:16:47;;;;;;;;;;;21.30;43.50;;;;;;3030651;19;4735;-27
2024/03/30 04:17:48;;;;;;;;;;;21.30;43.50;;;;;;3052335;19;4646;-27
2024/03/30 04:18:48;;;;;;;;;;;21.30;43.30;;;;;;3030072;19;4906;-26
2024/03/30 04:19:49;;;;;;;;;;;21.40;43.30;;;;;;3051770;19;4711;-25
2024/03/30 04:21:00;;;;;;;;;;;21.40;43.20;;;;;;3051203;19;4786;-27
2024/03/30 04:22:02;;;;;;;;;;;21.40;43.20;;;;;;3029520;19;4634;-27
2024/03/30 04:23:03;;;;;;;;;;;21.20;42.90;;;;;;3050086;19;4696;-26
2024/03/30 04:24:04;;;;;;;;;;;21.50;43.10;;;;;;3028771;19;4936;-32
2024/03/30 04:25:04;;;;;;;;;;;21.50;43.10;;;;;;3050709;19;4790;-26
2024/03/30 04:26:14;;;;;;;;;;;21.50;43.00;;;;;;3051657;19;4646;-25
2024/03/30 04:27:15;;;;;;;;;;;21.50;43.00;;;;;;3027072;19;4725;-27
2024/03/30 04:28:15;;;;;;;;;;;21.50;43.00;;;;;;3050819;19;4741;-30
2024/03/30 04:29:16;;;;;;;;;;;21.40;43.00;;;;;;3028442;19;4678;-25
2024/03/30 04:30:18;;;;;;;;;;;21.50;42.90;;;;;;3050513;19;4740;-26
2024/03/30 04:31:19;;;;;;;;;;;21.50;43.00;;;;;;3050412;19;4866;-26
2024/03/30 04:32:19;;;;;;;;;;;21.40;42.90;;;;;;3028689;19;4692;-26
2024/03/30 04:33:20;;;;;;;;;;;21.50;43.00;;;;;;3048982;19;4732;-27
2024/03/30 04:34:21;;;;;;;;;;;21.50;43.00;;;;;;3049778;19;4780;-28
2024/03/30 04:35:21;;;;;;;;;;;21.40;42.90;;;;;;3028234;19;4665;-28
2024/03/30 04:36:22;;;;;;;;;;;21.40;43.00;;;;;;3050501;19;4687;-25
2024/03/30 04:37:23;;;;;;;;;;;21.40;43.00;;;;;;3029454;19;4688;-25
2024/03/30 04:38:24;;;;;;;;;;;21.40;43.00;;;;;;3052119;19;4653;-26
2024/03/30 04:39:25;;;;;;;;;;;21.40;43.00;;;;;;3051031;19;4692;-25
2024/03/30 04:40:27;;;;;;;;;;;21.40;43.00;;;;;;3028439;19;4837;-26
2024/03/30 04:41:27;;;;;;;;;;;21.40;43.00;;;;;;3050674;19;4832;-25
2024/03/30 04:42:28;;;;;;;;;;;21.40;43.00;;;;;;3049762;19;4710;-25
2024/03/30 04:43:30;;;;;;;;;;;21.40;43.10;;;;;;3029779;19;4654;-25
2024/03/30 04:44:30;;;;;;;;;;;21.40;43.70;;;;;;3049669;19;4726;-24
2024/03/30 04:45:31;;;;;;;;;;;21.50;43.00;;;;;;3028868;19;4768;-27
2024/03/30 04:46:31;;;;;;;;;;;21.40;42.90;;;;;;3050648;19;4665;-28
2024/03/30 04:47:32;;;;;;;;;;;21.40;42.90;;;;;;3051297;19;4826;-26
2024/03/30 04:48:33;;;;;;;;;;;21.40;42.90;;;;;;3028345;19;4649;-28
2024/03/30 04:49:33;;;;;;;;;;;21.50;42.90;;;;;;3050765;19;4865;-24
2024/03/30 04:50:34;;;;;;;;;;;21.50;42.90;;;;;;3029640;19;4768;-26
2024/03/30 04:51:35;;;;;;;;;;;21.50;42.80;;;;;;3050810;19;4700;-25
2024/03/30 04:52:35;;;;;;;;;;;21.50;42.80;;;;;;3052281;19;4669;-29
2024/03/30 04:53:36;;;;;;;;;;;21.60;42.80;;;;;;3029382;19;4705;-26
2024/03/30 04:54:36;;;;;;;;;;;21.60;42.80;;;;;;3051024;19;4720;-27
2024/03/30 04:55:37;;;;;;;;;;;21.60;42.80;;;;;;3051394;19;4712;-26
2024/03/30 04:56:38;;;;;;;;;;;21.60;42.60;;;;;;3028361;19;4650;-28
2024/03/30 04:57:38;;;;;;;;;;;21.70;42.60;;;;;;3049108;19;4657;-26
2024/03/30 04:58:40;;;;;;;;;;;21.70;42.50;;;;;;3028529;19;4704;-25
2024/03/30 04:59:40;;;;;;;;;;;21.70;42.40;;;;;;3049965;19;4709;-25
2024/03/30 05:00:41;;;;;;;;;;;21.70;42.40;;;;;;3049968;19;4725;-25
2024/03/30 05:01:42;;;;;;;;;;;21.70;42.30;;;;;;3029543;19;4678;-25
2024/03/30 05:02:42;;;;;;;;;;;21.70;42.30;;;;;;3050499;19;4740;-26
2024/03/30 05:03:43;;;;;;;;;;;21.70;42.30;;;;;;3051578;19;4672;-25
2024/03/30 05:04:44;;;;;;;;;;;21.80;42.40;;;;;;3030530;19;4609;-26
2024/03/30 05:05:45;;;;;;;;;;;21.70;42.30;;;;;;3048166;19;4702;-28
2024/03/30 05:06:45;;;;;;;;;;;21.70;42.30;;;;;;3027765;19;4687;-26
2024/03/30 05:07:46;;;;;;;;;;;21.70;42.30;;;;;;3050557;19;4664;-25
2024/03/30 05:08:47;;;;;;;;;;;21.70;42.30;;;;;;3050079;19;4698;-26
2024/03/30 05:09:47;;;;;;;;;;;21.70;42.40;;;;;;3025959;19;4678;-26
2024/03/30 05:10:48;;;;;;;;;;;21.70;42.40;;;;;;3051312;19;4854;-26
2024/03/30 05:11:49;;;;;;;;;;;21.60;42.30;;;;;;3048991;19;4749;-23
2024/03/30 05:12:49;;;;;;;;;;;21.70;42.40;;;;;;3028954;19;4658;-24
2024/03/30 05:13:51;;;;;;;;;;;21.60;42.40;;;;;;3048635;19;5152;-25
2024/03/30 05:14:51;;;;;;;;;;;21.60;42.50;;;;;;3029691;19;4739;-27
2024/03/30 05:15:52;;;;;;;;;;;21.60;42.50;;;;;;3051074;19;5077;-25
2024/03/30 05:16:52;;;;;;;;;;;21.60;42.50;;;;;;3049684;19;4763;-26
2024/03/30 05:17:53;;;;;;;;;;;21.60;42.60;;;;;;3029741;19;4664;-25
2024/03/30 05:18:54;;;;;;;;;;;21.60;42.60;;;;;;3051053;19;4696;-24
2024/03/30 05:21:13;;;;;;;;;;;21.50;42.60;;;;;;3049516;19;4726;-31
2024/03/30 05:22:14;;;;;;;;;;;21.50;42.70;;;;;;3050437;19;4710;-26
2024/03/30 05:23:34;;;;;;;;;;;21.50;42.70;;;;;;3028647;19;4588;-25
2024/03/30 05:24:34;;;;;;;;;;;21.50;42.70;;;;;;3047867;19;4891;-28
2024/03/30 05:25:35;;;;;;;;;;;21.40;42.70;;;;;;3027032;19;4648;-28
2024/03/30 05:26:36;;;;;;;;;;;21.50;42.80;;;;;;3049332;19;4888;-28
2024/03/30 05:27:36;;;;;;;;;;;21.50;42.90;;;;;;3049557;19;4698;-27
2024/03/30 05:28:37;;;;;;;;;;;21.40;42.90;;;;;;3029108;19;4660;-24
2024/03/30 05:29:38;;;;;;;;;;;21.40;43.00;;;;;;3049132;19;4771;-26
2024/03/30 05:30:38;;;;;;;;;;;21.50;42.80;;;;;;3028001;19;4690;-26
2024/03/30 05:31:39;;;;;;;;;;;21.50;42.70;;;;;;3047989;19;4746;-25
2024/03/30 05:32:39;;;;;;;;;;;21.60;43.00;;;;;;3051083;19;4715;-27
2024/03/30 05:33:40;;;;;;;;;;;21.60;42.60;;;;;;3026938;19;4734;-31
2024/03/30 05:34:41;;;;;;;;;;;21.60;42.60;;;;;;3050003;19;4821;-25
2024/03/30 05:35:41;;;;;;;;;;;21.60;42.50;;;;;;3048765;19;4730;-27
2024/03/30 05:36:42;;;;;;;;;;;21.60;42.50;;;;;;3029663;19;4506;-25
2024/03/30 05:37:43;;;;;;;;;;;21.60;42.50;;;;;;3049087;19;4777;-24
2024/03/30 05:38:44;;;;;;;;;;;21.60;42.50;;;;;;3027940;19;4805;-29
2024/03/30 05:39:45;;;;;;;;;;;21.60;42.50;;;;;;3049245;19;4852;-26
2024/03/30 05:40:46;;;;;;;;;;;21.60;42.50;;;;;;3050555;19;4742;-26
2024/03/30 05:41:46;;;;;;;;;;;21.60;42.60;;;;;;3026658;19;4510;-27
2024/03/30 05:42:47;;;;;;;;;;;21.60;42.60;;;;;;3051603;19;4726;-27
2024/03/30 05:43:48;;;;;;;;;;;21.50;42.50;;;;;;3049533;19;4748;-26
2024/03/30 05:44:50;;;;;;;;;;;21.50;42.60;;;;;;3029634;19;4564;-30
2024/03/30 05:45:57;;;;;;;;;;;21.50;42.60;;;;;;3050144;19;4734;-32
2024/03/30 05:46:59;;;;;;;;;;;21.60;42.70;;;;;;3026338;19;4699;-31
2024/03/30 05:48:00;;;;;;;;;;;21.50;42.60;;;;;;3050110;19;4772;-30
2024/03/30 05:49:00;;;;;;;;;;;21.50;42.70;;;;;;3049754;19;4861;-33
2024/03/30 05:50:01;;;;;;;;;;;21.50;42.70;;;;;;3028081;19;4612;-31
2024/03/30 05:51:02;;;;;;;;;;;21.50;42.80;;;;;;3050657;19;4705;-32
2024/03/30 05:52:03;;;;;;;;;;;21.50;42.80;;;;;;3029082;19;4776;-32
2024/03/30 05:53:04;;;;;;;;;;;21.50;42.90;;;;;;3051038;19;4834;-30
2024/03/30 05:54:04;;;;;;;;;;;21.40;42.80;;;;;;3049672;19;4638;-34
2024/03/30 05:55:05;;;;;;;;;;;21.40;42.80;;;;;;3029678;19;4620;-31
2024/03/30 05:56:06;;;;;;;;;;;21.40;43.50;;;;;;3051213;19;4596;-32
2024/03/30 05:57:07;;;;;;;;;;;21.40;42.80;;;;;;3051033;19;4519;-31
2024/03/30 05:58:09;;;;;;;;;;;21.50;42.70;;;;;;3027182;19;4663;-33
2024/03/30 05:59:10;;;;;;;;;;;21.50;42.70;;;;;;3047087;19;5314;-33
2024/03/30 06:00:11;;;;;;;;;;;21.50;42.60;;;;;;3026751;19;4567;-31
2024/03/30 06:01:12;;;;;;;;;;;21.60;42.70;;;;;;3047114;19;4828;-31